Jacksonville, FL (32211)

4:07 PM EDT on April 18, 2015 (GMT -0400)
Talleyrand | | Change Station
CLOSE
Current Station
Personal Weather Station
Location: Jacksonville, FL
Elevation: 16 ft
Nearby Weather Stations

Elev 16 ft 30.34 °N, 81.63 °W | Updated 2 minutes ago

Mostly Cloudy
Mostly Cloudy
87.1 °F
Feels Like 92 °F
N
1.0
Wind Variable Wind from SW
Gusts 9.0 mph

Today
High -- | Low -- °F
--% Chance of Precip.
Yesterday
High -- | Low -- °F
Precip. -- in
6:56 AM 7:55 PM
New Moon, 0% visible
Pressure 29.90 in
Visibility 10.0 miles
Clouds Few 4700 ft
Scattered Clouds 5500 ft
Heat Index 92 °F
Dew Point 70 °F
Humidity 57%
Rainfall 0.00 in
Snow Depth Not available.
UV 4.9 out of 12
Pollen 8.30 out of 12
Air Quality Not available.
Flu Activity Local Activity
METAR KCRG 181953Z 10009KT 10SM FEW047 SCT055 28/21 A2989 RMK AO2 SLP123 T02830211

More Conditions Fewer Conditions

Pressure 29.90 in
Visibility 10.0 miles
Clouds Few 4700 ft
Scattered Clouds 5500 ft
Heat Index 92 °F
Dew Point 70 °F
Humidity 57%
Rainfall 0.00 in
Snow Depth Not available.
UV 4.9 out of 12
Pollen 8.30 out of 12
Air Quality Not available.
Flu Activity Local Activity
METAR KCRG 181953Z 10009KT 10SM FEW047 SCT055 28/21 A2989 RMK AO2 SLP123 T02830211

More Conditions Fewer Conditions

10-Day Weather Forecast

Almanac

Astronomy

Apr. 18, 2015 Rise Set
Actual Time
Civil Twilight
Nautical Twilight
Astronomical Twilight
Moon
Length of Visible Light
Length of Day
Tomorrow will be .
, % of the Moon is Illuminated

Today's Extremes

State Highs State Lows

Community

WunderPhotos

Upload Photos

1,814,513 photos uploaded!

WunderBlogs® & News

Nearby

Air Quality

  Air Quality AQ Index Pollutant
Not available.

Snow Depth

Station Depth Elevation

Earthquake Activity

City Distance Mag. Time & Date
Minimum magnitude displayed is 2.5.

Coastal Water Temperatures

Place Temperature

Stations

Nearby Weather Stations

Station Location Temp. Windchill Dew Point Humidity Wind Precip. Elev Updated Type